sensor_id;sensor_type;location;lat;lon;timestamp;P1;durP1;ratioP1;P2;durP2;ratioP2
20150;SDS011;10236;49.638;6.830;2022-12-13T00:00:30;40.53;;;21.37;;
20150;SDS011;10236;49.638;6.830;2022-12-13T00:02:56;37.00;;;21.10;;
20150;SDS011;10236;49.638;6.830;2022-12-13T00:05:22;38.93;;;21.03;;
20150;SDS011;10236;49.638;6.830;2022-12-13T00:07:48;33.00;;;18.97;;
20150;SDS011;10236;49.638;6.830;2022-12-13T00:10:14;41.87;;;24.60;;
20150;SDS011;10236;49.638;6.830;2022-12-13T00:12:40;37.13;;;21.50;;
20150;SDS011;10236;49.638;6.830;2022-12-13T00:15:06;36.10;;;21.10;;
20150;SDS011;10236;49.638;6.830;2022-12-13T00:17:32;34.10;;;18.37;;
20150;SDS011;10236;49.638;6.830;2022-12-13T00:19:58;34.47;;;19.37;;
20150;SDS011;10236;49.638;6.830;2022-12-13T00:22:24;39.43;;;20.63;;
20150;SDS011;10236;49.638;6.830;2022-12-13T00:24:52;35.53;;;19.43;;
20150;SDS011;10236;49.638;6.830;2022-12-13T00:27:19;37.47;;;20.53;;
20150;SDS011;10236;49.638;6.830;2022-12-13T00:29:45;35.27;;;19.57;;
20150;SDS011;10236;49.638;6.830;2022-12-13T00:32:10;134.27;;;76.63;;
20150;SDS011;10236;49.638;6.830;2022-12-13T00:34:36;163.40;;;96.10;;
20150;SDS011;10236;49.638;6.830;2022-12-13T00:37:02;49.70;;;27.10;;
20150;SDS011;10236;49.638;6.830;2022-12-13T00:39:28;176.73;;;106.30;;
20150;SDS011;10236;49.638;6.830;2022-12-13T00:41:54;51.23;;;25.00;;
20150;SDS011;10236;49.638;6.830;2022-12-13T00:44:20;57.67;;;27.00;;
20150;SDS011;10236;49.638;6.830;2022-12-13T00:46:46;56.50;;;25.83;;
20150;SDS011;10236;49.638;6.830;2022-12-13T00:49:15;51.13;;;24.43;;
20150;SDS011;10236;49.638;6.830;2022-12-13T00:51:41;41.77;;;21.60;;
20150;SDS011;10236;49.638;6.830;2022-12-13T00:54:07;39.23;;;21.03;;
20150;SDS011;10236;49.638;6.830;2022-12-13T00:56:35;34.93;;;20.57;;
20150;SDS011;10236;49.638;6.830;2022-12-13T00:59:02;34.53;;;19.57;;
20150;SDS011;10236;49.638;6.830;2022-12-13T01:01:29;42.07;;;21.53;;
20150;SDS011;10236;49.638;6.830;2022-12-13T01:03:55;38.27;;;21.00;;
20150;SDS011;10236;49.638;6.830;2022-12-13T01:06:31;37.93;;;21.47;;
20150;SDS011;10236;49.638;6.830;2022-12-13T01:09:01;39.50;;;21.87;;
20150;SDS011;10236;49.638;6.830;2022-12-13T01:11:29;34.17;;;19.27;;
20150;SDS011;10236;49.638;6.830;2022-12-13T01:14:01;32.67;;;18.27;;
20150;SDS011;10236;49.638;6.830;2022-12-13T01:16:27;33.90;;;17.77;;
20150;SDS011;10236;49.638;6.830;2022-12-13T01:18:55;30.57;;;17.03;;
20150;SDS011;10236;49.638;6.830;2022-12-13T01:21:21;34.10;;;17.43;;
20150;SDS011;10236;49.638;6.830;2022-12-13T01:23:47;32.73;;;16.93;;
20150;SDS011;10236;49.638;6.830;2022-12-13T01:26:14;29.27;;;16.67;;
20150;SDS011;10236;49.638;6.830;2022-12-13T01:28:41;29.50;;;17.10;;
20150;SDS011;10236;49.638;6.830;2022-12-13T01:31:11;31.77;;;17.33;;
20150;SDS011;10236;49.638;6.830;2022-12-13T01:36:33;25.37;;;15.60;;
20150;SDS011;10236;49.638;6.830;2022-12-13T01:39:02;29.00;;;15.60;;
20150;SDS011;10236;49.638;6.830;2022-12-13T01:41:28;24.27;;;14.70;;
20150;SDS011;10236;49.638;6.830;2022-12-13T01:43:55;26.67;;;15.43;;
20150;SDS011;10236;49.638;6.830;2022-12-13T01:46:24;27.90;;;15.70;;
20150;SDS011;10236;49.638;6.830;2022-12-13T01:48:59;23.77;;;14.43;;
20150;SDS011;10236;49.638;6.830;2022-12-13T01:51:32;23.97;;;13.87;;
20150;SDS011;10236;49.638;6.830;2022-12-13T01:53:59;25.53;;;14.80;;
20150;SDS011;10236;49.638;6.830;2022-12-13T01:56:29;23.53;;;14.23;;
20150;SDS011;10236;49.638;6.830;2022-12-13T01:58:56;25.10;;;14.67;;
20150;SDS011;10236;49.638;6.830;2022-12-13T02:01:25;26.27;;;14.60;;
20150;SDS011;10236;49.638;6.830;2022-12-13T02:03:52;26.07;;;14.83;;
20150;SDS011;10236;49.638;6.830;2022-12-13T02:06:33;25.67;;;14.00;;
20150;SDS011;10236;49.638;6.830;2022-12-13T02:09:00;25.80;;;14.47;;
20150;SDS011;10236;49.638;6.830;2022-12-13T02:11:35;26.23;;;14.90;;
20150;SDS011;10236;49.638;6.830;2022-12-13T02:14:05;23.23;;;13.33;;
20150;SDS011;10236;49.638;6.830;2022-12-13T02:21:57;25.47;;;13.63;;
20150;SDS011;10236;49.638;6.830;2022-12-13T02:27:03;26.20;;;14.60;;
20150;SDS011;10236;49.638;6.830;2022-12-13T02:30:07;25.73;;;14.50;;
20150;SDS011;10236;49.638;6.830;2022-12-13T02:32:36;22.70;;;13.90;;
20150;SDS011;10236;49.638;6.830;2022-12-13T02:35:10;23.20;;;14.00;;
20150;SDS011;10236;49.638;6.830;2022-12-13T02:42:56;27.00;;;14.20;;
20150;SDS011;10236;49.638;6.830;2022-12-13T02:45:27;27.73;;;15.87;;
20150;SDS011;10236;49.638;6.830;2022-12-13T02:47:57;28.07;;;15.77;;
20150;SDS011;10236;49.638;6.830;2022-12-13T02:50:25;25.90;;;14.57;;
20150;SDS011;10236;49.638;6.830;2022-12-13T02:52:58;25.47;;;15.03;;
20150;SDS011;10236;49.638;6.830;2022-12-13T02:55:24;26.53;;;15.07;;
20150;SDS011;10236;49.638;6.830;2022-12-13T02:57:50;26.47;;;15.27;;
20150;SDS011;10236;49.638;6.830;2022-12-13T03:00:21;25.70;;;15.40;;
20150;SDS011;10236;49.638;6.830;2022-12-13T03:05:16;27.80;;;16.03;;
20150;SDS011;10236;49.638;6.830;2022-12-13T03:13:33;24.27;;;14.60;;
20150;SDS011;10236;49.638;6.830;2022-12-13T03:16:26;25.57;;;15.10;;
20150;SDS011;10236;49.638;6.830;2022-12-13T03:18:59;26.93;;;15.00;;
20150;SDS011;10236;49.638;6.830;2022-12-13T03:21:25;29.03;;;15.67;;
20150;SDS011;10236;49.638;6.830;2022-12-13T03:23:51;24.90;;;14.33;;
20150;SDS011;10236;49.638;6.830;2022-12-13T03:26:22;27.60;;;14.67;;
20150;SDS011;10236;49.638;6.830;2022-12-13T03:28:49;25.13;;;14.87;;
20150;SDS011;10236;49.638;6.830;2022-12-13T03:31:15;25.37;;;14.47;;
20150;SDS011;10236;49.638;6.830;2022-12-13T03:33:44;24.60;;;14.07;;
20150;SDS011;10236;49.638;6.830;2022-12-13T03:36:11;25.87;;;14.40;;
20150;SDS011;10236;49.638;6.830;2022-12-13T03:38:46;26.33;;;14.47;;
20150;SDS011;10236;49.638;6.830;2022-12-13T03:41:26;24.93;;;14.30;;
20150;SDS011;10236;49.638;6.830;2022-12-13T03:44:10;29.80;;;16.17;;
20150;SDS011;10236;49.638;6.830;2022-12-13T03:46:39;27.03;;;15.63;;
20150;SDS011;10236;49.638;6.830;2022-12-13T03:49:08;28.67;;;15.73;;
20150;SDS011;10236;49.638;6.830;2022-12-13T03:51:34;27.30;;;15.90;;
20150;SDS011;10236;49.638;6.830;2022-12-13T03:54:09;27.70;;;14.93;;
20150;SDS011;10236;49.638;6.830;2022-12-13T03:56:40;23.00;;;14.50;;
20150;SDS011;10236;49.638;6.830;2022-12-13T03:59:09;27.40;;;15.43;;
20150;SDS011;10236;49.638;6.830;2022-12-13T04:01:41;26.87;;;15.87;;
20150;SDS011;10236;49.638;6.830;2022-12-13T04:04:07;27.73;;;15.40;;
20150;SDS011;10236;49.638;6.830;2022-12-13T04:06:35;25.37;;;14.90;;
20150;SDS011;10236;49.638;6.830;2022-12-13T04:09:07;30.50;;;16.23;;
20150;SDS011;10236;49.638;6.830;2022-12-13T04:11:35;30.20;;;16.03;;
20150;SDS011;10236;49.638;6.830;2022-12-13T04:14:20;31.03;;;16.57;;
20150;SDS011;10236;49.638;6.830;2022-12-13T04:16:49;28.93;;;16.23;;
20150;SDS011;10236;49.638;6.830;2022-12-13T04:19:19;26.63;;;14.80;;
20150;SDS011;10236;49.638;6.830;2022-12-13T04:21:47;27.13;;;15.53;;
20150;SDS011;10236;49.638;6.830;2022-12-13T04:24:16;31.43;;;15.37;;
20150;SDS011;10236;49.638;6.830;2022-12-13T04:26:45;31.07;;;15.93;;
20150;SDS011;10236;49.638;6.830;2022-12-13T04:29:11;26.73;;;15.57;;
20150;SDS011;10236;49.638;6.830;2022-12-13T04:31:46;23.90;;;15.60;;
20150;SDS011;10236;49.638;6.830;2022-12-13T04:34:12;28.70;;;16.40;;
20150;SDS011;10236;49.638;6.830;2022-12-13T04:36:40;26.43;;;15.57;;
20150;SDS011;10236;49.638;6.830;2022-12-13T04:39:09;28.13;;;16.00;;
20150;SDS011;10236;49.638;6.830;2022-12-13T04:41:36;25.90;;;15.40;;
20150;SDS011;10236;49.638;6.830;2022-12-13T04:44:05;28.53;;;15.13;;
20150;SDS011;10236;49.638;6.830;2022-12-13T04:46:36;24.43;;;15.27;;
20150;SDS011;10236;49.638;6.830;2022-12-13T04:49:02;28.57;;;15.73;;
20150;SDS011;10236;49.638;6.830;2022-12-13T04:51:34;24.13;;;15.17;;
20150;SDS011;10236;49.638;6.830;2022-12-13T04:54:20;24.27;;;14.83;;
20150;SDS011;10236;49.638;6.830;2022-12-13T04:56:46;23.67;;;14.27;;
20150;SDS011;10236;49.638;6.830;2022-12-13T04:59:15;26.40;;;14.53;;
20150;SDS011;10236;49.638;6.830;2022-12-13T05:01:52;25.20;;;15.43;;
20150;SDS011;10236;49.638;6.830;2022-12-13T05:04:23;25.67;;;15.33;;
20150;SDS011;10236;49.638;6.830;2022-12-13T05:06:51;22.33;;;13.60;;
20150;SDS011;10236;49.638;6.830;2022-12-13T05:09:30;27.60;;;15.90;;
20150;SDS011;10236;49.638;6.830;2022-12-13T05:11:58;26.53;;;15.77;;
20150;SDS011;10236;49.638;6.830;2022-12-13T05:14:30;27.20;;;15.87;;
20150;SDS011;10236;49.638;6.830;2022-12-13T05:16:56;29.60;;;16.33;;
20150;SDS011;10236;49.638;6.830;2022-12-13T05:19:30;33.70;;;17.07;;
20150;SDS011;10236;49.638;6.830;2022-12-13T05:22:19;27.90;;;15.43;;
20150;SDS011;10236;49.638;6.830;2022-12-13T05:24:56;27.77;;;15.77;;
20150;SDS011;10236;49.638;6.830;2022-12-13T05:27:25;30.83;;;17.27;;
20150;SDS011;10236;49.638;6.830;2022-12-13T05:29:54;32.17;;;17.33;;
20150;SDS011;10236;49.638;6.830;2022-12-13T05:32:23;33.33;;;17.77;;
20150;SDS011;10236;49.638;6.830;2022-12-13T05:34:55;34.17;;;19.23;;
20150;SDS011;10236;49.638;6.830;2022-12-13T05:37:23;35.93;;;19.50;;
20150;SDS011;10236;49.638;6.830;2022-12-13T05:39:49;33.43;;;18.87;;
20150;SDS011;10236;49.638;6.830;2022-12-13T05:42:18;28.60;;;17.03;;
20150;SDS011;10236;49.638;6.830;2022-12-13T05:44:47;28.10;;;16.77;;
20150;SDS011;10236;49.638;6.830;2022-12-13T05:47:13;25.43;;;16.03;;
20150;SDS011;10236;49.638;6.830;2022-12-13T05:49:42;25.83;;;16.07;;
20150;SDS011;10236;49.638;6.830;2022-12-13T05:52:20;28.90;;;15.70;;
20150;SDS011;10236;49.638;6.830;2022-12-13T05:54:53;24.90;;;14.87;;
20150;SDS011;10236;49.638;6.830;2022-12-13T05:57:25;25.93;;;15.03;;
20150;SDS011;10236;49.638;6.830;2022-12-13T05:59:51;27.60;;;14.93;;
20150;SDS011;10236;49.638;6.830;2022-12-13T06:02:20;24.93;;;13.67;;
20150;SDS011;10236;49.638;6.830;2022-12-13T06:04:49;24.67;;;14.40;;
20150;SDS011;10236;49.638;6.830;2022-12-13T06:07:30;27.50;;;15.60;;
20150;SDS011;10236;49.638;6.830;2022-12-13T06:09:56;23.87;;;13.63;;
20150;SDS011;10236;49.638;6.830;2022-12-13T06:12:35;25.17;;;14.37;;
20150;SDS011;10236;49.638;6.830;2022-12-13T06:15:10;24.47;;;14.33;;
20150;SDS011;10236;49.638;6.830;2022-12-13T06:17:36;25.23;;;14.17;;
20150;SDS011;10236;49.638;6.830;2022-12-13T06:20:05;25.77;;;14.03;;
20150;SDS011;10236;49.638;6.830;2022-12-13T06:22:31;23.93;;;14.00;;
20150;SDS011;10236;49.638;6.830;2022-12-13T06:24:57;23.17;;;14.10;;
20150;SDS011;10236;49.638;6.830;2022-12-13T06:27:29;25.10;;;15.03;;
20150;SDS011;10236;49.638;6.830;2022-12-13T06:29:55;23.17;;;13.90;;
20150;SDS011;10236;49.638;6.830;2022-12-13T06:32:23;20.53;;;12.53;;
20150;SDS011;10236;49.638;6.830;2022-12-13T06:34:49;24.20;;;13.23;;
20150;SDS011;10236;49.638;6.830;2022-12-13T06:37:19;23.57;;;13.03;;
20150;SDS011;10236;49.638;6.830;2022-12-13T06:39:54;22.03;;;13.53;;
20150;SDS011;10236;49.638;6.830;2022-12-13T06:42:38;21.33;;;13.07;;
20150;SDS011;10236;49.638;6.830;2022-12-13T06:45:04;22.30;;;13.63;;
20150;SDS011;10236;49.638;6.830;2022-12-13T06:47:31;23.33;;;13.20;;
20150;SDS011;10236;49.638;6.830;2022-12-13T06:49:59;22.33;;;12.57;;
20150;SDS011;10236;49.638;6.830;2022-12-13T06:52:40;22.03;;;13.27;;
20150;SDS011;10236;49.638;6.830;2022-12-13T06:55:15;19.70;;;12.50;;
20150;SDS011;10236;49.638;6.830;2022-12-13T06:57:46;21.93;;;13.27;;
20150;SDS011;10236;49.638;6.830;2022-12-13T07:00:15;22.47;;;12.43;;
20150;SDS011;10236;49.638;6.830;2022-12-13T07:02:41;19.70;;;12.27;;
20150;SDS011;10236;49.638;6.830;2022-12-13T07:05:12;23.07;;;13.00;;
20150;SDS011;10236;49.638;6.830;2022-12-13T07:07:41;23.10;;;13.00;;
20150;SDS011;10236;49.638;6.830;2022-12-13T07:10:07;18.73;;;11.97;;
20150;SDS011;10236;49.638;6.830;2022-12-13T07:12:39;23.20;;;13.37;;
20150;SDS011;10236;49.638;6.830;2022-12-13T07:15:05;19.00;;;11.67;;
20150;SDS011;10236;49.638;6.830;2022-12-13T07:17:31;21.57;;;13.13;;
20150;SDS011;10236;49.638;6.830;2022-12-13T07:20:02;24.13;;;13.77;;
20150;SDS011;10236;49.638;6.830;2022-12-13T07:22:39;23.83;;;12.97;;
20150;SDS011;10236;49.638;6.830;2022-12-13T07:25:05;20.77;;;12.73;;
20150;SDS011;10236;49.638;6.830;2022-12-13T07:27:31;22.50;;;12.97;;
20150;SDS011;10236;49.638;6.830;2022-12-13T07:30:00;22.07;;;13.17;;
20150;SDS011;10236;49.638;6.830;2022-12-13T07:32:26;24.80;;;13.30;;
20150;SDS011;10236;49.638;6.830;2022-12-13T07:34:52;21.70;;;13.07;;
20150;SDS011;10236;49.638;6.830;2022-12-13T07:37:18;22.57;;;12.67;;
20150;SDS011;10236;49.638;6.830;2022-12-13T07:39:44;22.37;;;13.00;;
20150;SDS011;10236;49.638;6.830;2022-12-13T07:42:10;23.10;;;13.57;;
20150;SDS011;10236;49.638;6.830;2022-12-13T07:44:36;21.87;;;12.63;;
20150;SDS011;10236;49.638;6.830;2022-12-13T07:47:02;21.27;;;13.30;;
20150;SDS011;10236;49.638;6.830;2022-12-13T07:49:31;22.13;;;12.30;;
20150;SDS011;10236;49.638;6.830;2022-12-13T07:52:03;23.17;;;13.17;;
20150;SDS011;10236;49.638;6.830;2022-12-13T07:54:41;21.80;;;13.70;;
20150;SDS011;10236;49.638;6.830;2022-12-13T07:57:07;29.40;;;15.20;;
20150;SDS011;10236;49.638;6.830;2022-12-13T07:59:33;25.87;;;14.53;;
20150;SDS011;10236;49.638;6.830;2022-12-13T08:02:02;25.03;;;14.20;;
20150;SDS011;10236;49.638;6.830;2022-12-13T08:04:30;25.03;;;13.73;;
20150;SDS011;10236;49.638;6.830;2022-12-13T08:07:06;26.23;;;14.87;;
20150;SDS011;10236;49.638;6.830;2022-12-13T08:09:35;25.63;;;13.80;;
20150;SDS011;10236;49.638;6.830;2022-12-13T08:15:01;24.77;;;13.27;;
20150;SDS011;10236;49.638;6.830;2022-12-13T08:17:30;23.90;;;12.87;;
20150;SDS011;10236;49.638;6.830;2022-12-13T08:28:50;22.23;;;12.40;;
20150;SDS011;10236;49.638;6.830;2022-12-13T08:31:16;20.23;;;11.57;;
20150;SDS011;10236;49.638;6.830;2022-12-13T08:33:43;21.13;;;12.50;;
20150;SDS011;10236;49.638;6.830;2022-12-13T08:36:13;22.17;;;12.87;;
20150;SDS011;10236;49.638;6.830;2022-12-13T08:38:40;24.17;;;14.77;;
20150;SDS011;10236;49.638;6.830;2022-12-13T08:41:06;22.60;;;14.07;;
20150;SDS011;10236;49.638;6.830;2022-12-13T08:43:35;22.33;;;12.03;;
20150;SDS011;10236;49.638;6.830;2022-12-13T08:46:10;19.27;;;11.40;;
20150;SDS011;10236;49.638;6.830;2022-12-13T08:48:40;18.33;;;11.57;;
20150;SDS011;10236;49.638;6.830;2022-12-13T08:51:29;23.43;;;13.17;;
20150;SDS011;10236;49.638;6.830;2022-12-13T08:54:13;20.40;;;12.93;;
20150;SDS011;10236;49.638;6.830;2022-12-13T08:59:08;18.13;;;10.30;;
20150;SDS011;10236;49.638;6.830;2022-12-13T09:01:37;17.73;;;10.50;;
20150;SDS011;10236;49.638;6.830;2022-12-13T09:04:03;18.23;;;10.67;;
20150;SDS011;10236;49.638;6.830;2022-12-13T09:06:29;20.47;;;10.07;;
20150;SDS011;10236;49.638;6.830;2022-12-13T09:08:55;17.77;;;10.63;;
20150;SDS011;10236;49.638;6.830;2022-12-13T09:11:24;16.07;;;9.97;;
20150;SDS011;10236;49.638;6.830;2022-12-13T09:13:56;26.20;;;17.40;;
20150;SDS011;10236;49.638;6.830;2022-12-13T09:16:30;20.70;;;12.50;;
20150;SDS011;10236;49.638;6.830;2022-12-13T09:19:03;20.63;;;11.80;;
20150;SDS011;10236;49.638;6.830;2022-12-13T09:21:30;20.70;;;11.77;;
20150;SDS011;10236;49.638;6.830;2022-12-13T09:23:56;17.73;;;12.73;;
20150;SDS011;10236;49.638;6.830;2022-12-13T09:26:25;22.23;;;12.83;;
20150;SDS011;10236;49.638;6.830;2022-12-13T09:28:51;19.20;;;12.37;;
20150;SDS011;10236;49.638;6.830;2022-12-13T09:31:20;19.53;;;11.87;;
20150;SDS011;10236;49.638;6.830;2022-12-13T09:33:48;15.10;;;10.07;;
20150;SDS011;10236;49.638;6.830;2022-12-13T09:36:15;19.30;;;11.90;;
20150;SDS011;10236;49.638;6.830;2022-12-13T09:38:44;42.07;;;21.80;;
20150;SDS011;10236;49.638;6.830;2022-12-13T09:41:18;18.83;;;11.70;;
20150;SDS011;10236;49.638;6.830;2022-12-13T09:43:51;17.30;;;11.40;;
20150;SDS011;10236;49.638;6.830;2022-12-13T09:46:20;28.27;;;16.10;;
20150;SDS011;10236;49.638;6.830;2022-12-13T09:51:36;18.70;;;11.23;;
20150;SDS011;10236;49.638;6.830;2022-12-13T09:54:03;20.07;;;12.03;;
20150;SDS011;10236;49.638;6.830;2022-12-13T09:56:34;17.97;;;10.83;;
20150;SDS011;10236;49.638;6.830;2022-12-13T09:59:00;18.37;;;11.30;;
20150;SDS011;10236;49.638;6.830;2022-12-13T10:01:27;18.23;;;11.70;;
20150;SDS011;10236;49.638;6.830;2022-12-13T10:03:59;17.33;;;9.70;;
20150;SDS011;10236;49.638;6.830;2022-12-13T10:06:27;14.50;;;8.67;;
20150;SDS011;10236;49.638;6.830;2022-12-13T10:08:59;13.87;;;8.43;;
20150;SDS011;10236;49.638;6.830;2022-12-13T10:11:25;15.70;;;9.07;;
20150;SDS011;10236;49.638;6.830;2022-12-13T10:14:05;17.13;;;9.50;;
20150;SDS011;10236;49.638;6.830;2022-12-13T10:19:14;14.67;;;9.10;;
20150;SDS011;10236;49.638;6.830;2022-12-13T10:21:49;16.50;;;8.33;;
20150;SDS011;10236;49.638;6.830;2022-12-13T10:24:20;12.33;;;7.43;;
20150;SDS011;10236;49.638;6.830;2022-12-13T10:35:41;15.83;;;8.77;;
20150;SDS011;10236;49.638;6.830;2022-12-13T10:38:30;13.43;;;7.67;;
20150;SDS011;10236;49.638;6.830;2022-12-13T10:40:59;12.67;;;7.13;;
20150;SDS011;10236;49.638;6.830;2022-12-13T10:43:28;10.47;;;6.17;;
20150;SDS011;10236;49.638;6.830;2022-12-13T10:48:33;11.17;;;6.13;;
20150;SDS011;10236;49.638;6.830;2022-12-13T10:51:03;9.10;;;5.20;;
20150;SDS011;10236;49.638;6.830;2022-12-13T10:53:31;9.30;;;5.70;;
20150;SDS011;10236;49.638;6.830;2022-12-13T10:55:57;9.70;;;5.47;;
20150;SDS011;10236;49.638;6.830;2022-12-13T10:58:41;9.13;;;5.63;;
20150;SDS011;10236;49.638;6.830;2022-12-13T11:01:10;9.10;;;6.00;;
20150;SDS011;10236;49.638;6.830;2022-12-13T11:04:03;8.73;;;5.30;;
20150;SDS011;10236;49.638;6.830;2022-12-13T11:09:34;20.27;;;6.03;;
20150;SDS011;10236;49.638;6.830;2022-12-13T11:12:13;9.07;;;5.10;;
20150;SDS011;10236;49.638;6.830;2022-12-13T11:17:25;50.50;;;18.17;;
20150;SDS011;10236;49.638;6.830;2022-12-13T11:20:14;37.57;;;16.23;;
20150;SDS011;10236;49.638;6.830;2022-12-13T11:22:41;11.03;;;5.40;;
20150;SDS011;10236;49.638;6.830;2022-12-13T11:25:31;9.43;;;5.50;;
20150;SDS011;10236;49.638;6.830;2022-12-13T11:27:59;10.50;;;6.73;;
20150;SDS011;10236;49.638;6.830;2022-12-13T11:41:14;8.63;;;4.97;;
20150;SDS011;10236;49.638;6.830;2022-12-13T11:43:47;7.70;;;5.03;;
20150;SDS011;10236;49.638;6.830;2022-12-13T11:46:17;5.90;;;3.60;;
20150;SDS011;10236;49.638;6.830;2022-12-13T11:48:46;7.83;;;4.50;;
20150;SDS011;10236;49.638;6.830;2022-12-13T11:51:43;7.10;;;4.53;;
20150;SDS011;10236;49.638;6.830;2022-12-13T11:54:43;8.23;;;5.03;;
20150;SDS011;10236;49.638;6.830;2022-12-13T11:57:20;9.60;;;6.27;;
20150;SDS011;10236;49.638;6.830;2022-12-13T11:59:51;8.67;;;5.03;;
20150;SDS011;10236;49.638;6.830;2022-12-13T12:02:28;9.73;;;5.87;;
20150;SDS011;10236;49.638;6.830;2022-12-13T12:07:40;9.50;;;5.30;;
20150;SDS011;10236;49.638;6.830;2022-12-13T12:12:47;8.07;;;5.07;;
20150;SDS011;10236;49.638;6.830;2022-12-13T12:15:20;8.83;;;5.00;;
20150;SDS011;10236;49.638;6.830;2022-12-13T12:27:03;8.17;;;4.73;;
20150;SDS011;10236;49.638;6.830;2022-12-13T12:32:39;8.87;;;5.10;;
20150;SDS011;10236;49.638;6.830;2022-12-13T12:38:11;14.83;;;6.43;;
20150;SDS011;10236;49.638;6.830;2022-12-13T12:41:06;11.43;;;5.90;;
20150;SDS011;10236;49.638;6.830;2022-12-13T12:54:56;10.27;;;4.70;;
20150;SDS011;10236;49.638;6.830;2022-12-13T12:57:38;7.87;;;5.37;;
20150;SDS011;10236;49.638;6.830;2022-12-13T13:00:27;9.03;;;5.33;;
20150;SDS011;10236;49.638;6.830;2022-12-13T13:03:00;13.00;;;6.37;;
20150;SDS011;10236;49.638;6.830;2022-12-13T13:05:35;14.23;;;7.00;;
20150;SDS011;10236;49.638;6.830;2022-12-13T13:08:05;9.87;;;5.13;;
20150;SDS011;10236;49.638;6.830;2022-12-13T13:10:34;8.60;;;5.00;;
20150;SDS011;10236;49.638;6.830;2022-12-13T13:15:54;11.27;;;5.70;;
20150;SDS011;10236;49.638;6.830;2022-12-13T13:26:33;10.90;;;5.10;;
20150;SDS011;10236;49.638;6.830;2022-12-13T13:34:46;9.33;;;5.47;;
20150;SDS011;10236;49.638;6.830;2022-12-13T13:42:34;10.13;;;5.97;;
20150;SDS011;10236;49.638;6.830;2022-12-13T13:45:23;11.07;;;5.97;;
20150;SDS011;10236;49.638;6.830;2022-12-13T13:48:05;14.10;;;6.40;;
20150;SDS011;10236;49.638;6.830;2022-12-13T13:50:49;11.87;;;6.07;;
20150;SDS011;10236;49.638;6.830;2022-12-13T14:04:29;11.47;;;6.73;;
20150;SDS011;10236;49.638;6.830;2022-12-13T14:16:12;15.87;;;8.03;;
20150;SDS011;10236;49.638;6.830;2022-12-13T14:18:55;14.63;;;8.43;;
20150;SDS011;10236;49.638;6.830;2022-12-13T14:29:54;13.13;;;7.87;;
20150;SDS011;10236;49.638;6.830;2022-12-13T14:34:48;14.20;;;8.47;;
20150;SDS011;10236;49.638;6.830;2022-12-13T14:37:21;14.70;;;7.70;;
20150;SDS011;10236;49.638;6.830;2022-12-13T14:39:54;10.53;;;6.77;;
20150;SDS011;10236;49.638;6.830;2022-12-13T14:42:27;11.97;;;6.70;;
20150;SDS011;10236;49.638;6.830;2022-12-13T14:44:54;14.03;;;7.07;;
20150;SDS011;10236;49.638;6.830;2022-12-13T14:47:20;12.50;;;7.10;;
20150;SDS011;10236;49.638;6.830;2022-12-13T14:49:48;13.00;;;6.60;;
20150;SDS011;10236;49.638;6.830;2022-12-13T14:52:28;15.33;;;8.73;;
20150;SDS011;10236;49.638;6.830;2022-12-13T14:54:59;12.43;;;7.87;;
20150;SDS011;10236;49.638;6.830;2022-12-13T14:57:29;9.27;;;6.50;;
20150;SDS011;10236;49.638;6.830;2022-12-13T14:59:57;10.97;;;6.43;;
20150;SDS011;10236;49.638;6.830;2022-12-13T15:02:25;12.50;;;6.80;;
20150;SDS011;10236;49.638;6.830;2022-12-13T15:04:53;14.00;;;7.57;;
20150;SDS011;10236;49.638;6.830;2022-12-13T15:07:27;10.80;;;6.73;;
20150;SDS011;10236;49.638;6.830;2022-12-13T15:09:56;10.27;;;6.10;;
20150;SDS011;10236;49.638;6.830;2022-12-13T15:12:23;13.00;;;6.50;;
20150;SDS011;10236;49.638;6.830;2022-12-13T15:14:56;9.23;;;6.00;;
20150;SDS011;10236;49.638;6.830;2022-12-13T15:19:52;10.20;;;5.63;;
20150;SDS011;10236;49.638;6.830;2022-12-13T15:22:18;9.13;;;5.27;;
20150;SDS011;10236;49.638;6.830;2022-12-13T15:24:44;9.47;;;5.63;;
20150;SDS011;10236;49.638;6.830;2022-12-13T15:27:12;8.70;;;5.23;;
20150;SDS011;10236;49.638;6.830;2022-12-13T15:29:39;11.20;;;5.70;;
20150;SDS011;10236;49.638;6.830;2022-12-13T15:32:10;11.83;;;5.70;;
20150;SDS011;10236;49.638;6.830;2022-12-13T15:34:36;13.73;;;6.00;;
20150;SDS011;10236;49.638;6.830;2022-12-13T15:37:04;14.93;;;6.60;;
20150;SDS011;10236;49.638;6.830;2022-12-13T15:39:34;10.87;;;5.63;;
20150;SDS011;10236;49.638;6.830;2022-12-13T15:42:01;12.03;;;7.10;;
20150;SDS011;10236;49.638;6.830;2022-12-13T15:46:56;14.67;;;7.30;;
20150;SDS011;10236;49.638;6.830;2022-12-13T15:52:00;26.67;;;13.53;;
20150;SDS011;10236;49.638;6.830;2022-12-13T15:54:26;10.17;;;6.67;;
20150;SDS011;10236;49.638;6.830;2022-12-13T15:56:58;10.13;;;6.07;;
20150;SDS011;10236;49.638;6.830;2022-12-13T15:59:26;10.33;;;5.90;;
20150;SDS011;10236;49.638;6.830;2022-12-13T16:01:53;11.23;;;6.57;;
20150;SDS011;10236;49.638;6.830;2022-12-13T16:04:23;13.83;;;7.07;;
20150;SDS011;10236;49.638;6.830;2022-12-13T16:06:50;15.33;;;7.23;;
20150;SDS011;10236;49.638;6.830;2022-12-13T16:09:17;14.57;;;6.23;;
20150;SDS011;10236;49.638;6.830;2022-12-13T16:14:49;10.70;;;6.70;;
20150;SDS011;10236;49.638;6.830;2022-12-13T16:17:18;10.63;;;5.90;;
20150;SDS011;10236;49.638;6.830;2022-12-13T16:19:48;14.93;;;8.67;;
20150;SDS011;10236;49.638;6.830;2022-12-13T16:22:14;13.27;;;7.07;;
20150;SDS011;10236;49.638;6.830;2022-12-13T16:24:43;10.37;;;6.43;;
20150;SDS011;10236;49.638;6.830;2022-12-13T16:27:09;12.10;;;7.43;;
20150;SDS011;10236;49.638;6.830;2022-12-13T16:29:38;12.13;;;7.20;;
20150;SDS011;10236;49.638;6.830;2022-12-13T16:32:07;13.90;;;7.43;;
20150;SDS011;10236;49.638;6.830;2022-12-13T16:34:37;14.87;;;7.40;;
20150;SDS011;10236;49.638;6.830;2022-12-13T16:37:07;17.67;;;8.20;;
20150;SDS011;10236;49.638;6.830;2022-12-13T16:39:34;13.40;;;7.80;;
20150;SDS011;10236;49.638;6.830;2022-12-13T16:42:00;13.47;;;8.10;;
20150;SDS011;10236;49.638;6.830;2022-12-13T16:46:55;12.97;;;8.50;;
20150;SDS011;10236;49.638;6.830;2022-12-13T16:49:28;22.93;;;11.70;;
20150;SDS011;10236;49.638;6.830;2022-12-13T16:51:55;20.27;;;11.43;;
20150;SDS011;10236;49.638;6.830;2022-12-13T16:54:26;25.97;;;13.33;;
20150;SDS011;10236;49.638;6.830;2022-12-13T16:56:52;20.17;;;10.97;;
20150;SDS011;10236;49.638;6.830;2022-12-13T16:59:25;16.87;;;8.93;;
20150;SDS011;10236;49.638;6.830;2022-12-13T17:01:51;14.57;;;8.77;;
20150;SDS011;10236;49.638;6.830;2022-12-13T17:04:18;22.73;;;9.67;;
20150;SDS011;10236;49.638;6.830;2022-12-13T17:06:45;14.80;;;8.93;;
20150;SDS011;10236;49.638;6.830;2022-12-13T17:09:14;13.80;;;8.70;;
20150;SDS011;10236;49.638;6.830;2022-12-13T17:11:40;13.13;;;8.17;;
20150;SDS011;10236;49.638;6.830;2022-12-13T17:14:12;12.57;;;8.33;;
20150;SDS011;10236;49.638;6.830;2022-12-13T17:16:41;17.67;;;11.57;;
20150;SDS011;10236;49.638;6.830;2022-12-13T17:19:10;14.03;;;8.67;;
20150;SDS011;10236;49.638;6.830;2022-12-13T17:21:39;14.00;;;7.53;;
20150;SDS011;10236;49.638;6.830;2022-12-13T17:24:05;13.37;;;8.20;;
20150;SDS011;10236;49.638;6.830;2022-12-13T17:26:32;15.03;;;8.07;;
20150;SDS011;10236;49.638;6.830;2022-12-13T17:28:59;14.67;;;8.57;;
20150;SDS011;10236;49.638;6.830;2022-12-13T17:31:25;33.57;;;14.90;;
20150;SDS011;10236;49.638;6.830;2022-12-13T17:33:51;31.17;;;13.83;;